CheckWX is a tool to help pilots better visualize weather data.  It is not intended as a substitute for an official pre-flight weather briefing.

08:04:42 UTC

EGPI TAF
Islay Airport
Port Ellen, United Kingdom
TAF AMD EGPI 210614Z 2106/2115 27012KT 5000 BR -RADZ BKN005 TEMPO 2106/2115 2000 RADZ BKN002

Jan-21@
06:00 UTC

Jan-21 @ 06:00 UTC

Jan-21@
15:00 UTC

Jan-21 @ 15:00 UTC

TAF AMD EGPI 210614Z 2106/2115 27012KT 5000 BR -RADZ BKN005
Wind
  • 270° at 12 KTS
Conditions
Mist, Light Rain, Light Drizzle
Cloud Levels
  • Broken at 500' AGL

Jan-21@
06:00 UTC

Jan-21 @ 06:00 UTC

Jan-21@
15:00 UTC

Jan-21 @ 15:00 UTC

TEMPO 2106/2115 2000 RADZ BKN002

Temporary

Temporary Changes expected for less than half the time period

Conditions
Rain, Drizzle
Cloud Levels
  • Broken at 200' AGL